createdAt,value
2023-10-24T00:02:14.231Z,2.28
2023-10-24T00:04:41.896Z,2.72
2023-10-24T00:07:10.081Z,1.80
2023-10-24T00:09:37.473Z,2.17
2023-10-24T00:12:05.063Z,1.98
2023-10-24T00:14:32.472Z,2.50
2023-10-24T00:16:59.960Z,2.83
2023-10-24T00:19:27.556Z,2.22
2023-10-24T00:21:55.048Z,2.70
2023-10-24T00:24:23.066Z,2.63
2023-10-24T00:26:50.581Z,2.33
2023-10-24T00:29:18.038Z,2.78
2023-10-24T00:31:45.510Z,2.38
2023-10-24T00:34:14.021Z,3.72
2023-10-24T00:36:44.143Z,2.53
2023-10-24T00:39:11.652Z,1.85
2023-10-24T00:41:39.434Z,2.20
2023-10-24T00:44:08.250Z,3.08
2023-10-24T00:46:38.724Z,2.80
2023-10-24T00:49:07.336Z,2.22
2023-10-24T00:51:35.074Z,2.03
2023-10-24T00:54:03.439Z,2.55
2023-10-24T00:56:32.254Z,2.58
2023-10-24T00:59:01.048Z,2.47
2023-10-24T01:01:29.042Z,2.53
2023-10-24T01:03:57.544Z,1.75
2023-10-24T01:06:25.240Z,2.40
2023-10-24T01:08:52.911Z,2.10
2023-10-24T01:11:20.219Z,2.55
2023-10-24T01:13:47.857Z,2.60
2023-10-24T01:16:17.436Z,2.13
2023-10-24T01:18:47.042Z,2.20
2023-10-24T01:21:14.694Z,2.47
2023-10-24T01:23:44.139Z,2.55
2023-10-24T01:26:13.183Z,2.67
2023-10-24T01:28:40.901Z,3.35
2023-10-24T01:31:08.537Z,2.33
2023-10-24T01:33:36.021Z,2.10
2023-10-24T01:36:03.694Z,2.22
2023-10-24T01:38:31.131Z,2.55
2023-10-24T01:40:58.628Z,2.42
2023-10-24T01:43:26.163Z,2.00
2023-10-24T01:45:53.635Z,2.08
2023-10-24T01:48:21.574Z,3.03
2023-10-24T01:50:48.979Z,2.47
2023-10-24T01:53:16.771Z,2.55
2023-10-24T01:55:44.433Z,2.13
2023-10-24T01:58:11.925Z,2.30
2023-10-24T02:00:39.374Z,2.13
2023-10-24T02:03:06.978Z,2.38
2023-10-24T02:05:35.030Z,2.15
2023-10-24T02:08:03.523Z,2.42
2023-10-24T02:10:31.139Z,2.13
2023-10-24T02:12:58.639Z,2.60
2023-10-24T02:15:27.985Z,3.28
2023-10-24T02:17:55.822Z,2.97
2023-10-24T02:20:24.872Z,2.55
2023-10-24T02:22:52.365Z,3.95
2023-10-24T02:25:19.700Z,2.22
2023-10-24T02:27:49.273Z,2.45
2023-10-24T02:30:16.766Z,2.58
2023-10-24T02:32:44.214Z,2.03
2023-10-24T02:35:11.794Z,2.20
2023-10-24T02:37:39.322Z,2.30
2023-10-24T02:40:09.425Z,2.28
2023-10-24T02:42:36.941Z,2.25
2023-10-24T02:45:04.780Z,2.42
2023-10-24T02:47:32.320Z,2.58
2023-10-24T02:50:00.790Z,2.25
2023-10-24T02:52:30.329Z,2.28
2023-10-24T02:54:58.002Z,2.55
2023-10-24T02:57:25.406Z,2.50
2023-10-24T02:59:52.872Z,2.10
2023-10-24T03:02:21.252Z,2.55
2023-10-24T03:04:48.881Z,2.20
2023-10-24T03:07:16.289Z,2.60
2023-10-24T03:09:44.023Z,2.83
2023-10-24T03:12:11.717Z,2.38
2023-10-24T03:14:39.281Z,1.92
2023-10-24T03:17:06.951Z,2.65
2023-10-24T03:19:34.330Z,2.25
2023-10-24T03:22:01.799Z,2.40
2023-10-24T03:24:30.016Z,2.28
2023-10-24T03:26:57.327Z,2.25
2023-10-24T03:29:24.746Z,2.78
2023-10-24T03:31:52.097Z,3.00
2023-10-24T03:34:19.369Z,2.72
2023-10-24T03:36:46.777Z,2.53
2023-10-24T03:39:14.075Z,2.55
2023-10-24T03:41:41.454Z,2.38
2023-10-24T03:44:08.933Z,2.72
2023-10-24T03:46:36.515Z,2.70
2023-10-24T03:49:04.213Z,2.40
2023-10-24T03:51:31.505Z,2.53
2023-10-24T03:53:58.760Z,3.00
2023-10-24T03:56:27.791Z,3.20
2023-10-24T03:58:55.375Z,2.72
2023-10-24T04:01:22.983Z,3.33
2023-10-24T04:03:50.525Z,3.78
2023-10-24T04:06:19.211Z,2.90
2023-10-24T04:08:46.828Z,2.78
2023-10-24T04:11:15.580Z,3.15
2023-10-24T04:13:44.225Z,2.97
2023-10-24T04:16:12.236Z,2.95
2023-10-24T04:18:41.258Z,3.33
2023-10-24T04:21:08.808Z,3.00
2023-10-24T04:23:37.002Z,3.28
2023-10-24T04:26:07.096Z,2.92
2023-10-24T04:28:35.212Z,3.05
2023-10-24T04:31:03.188Z,3.42
2023-10-24T04:33:30.787Z,3.03
2023-10-24T04:35:58.248Z,3.60
2023-10-24T04:38:25.713Z,4.25
2023-10-24T04:40:53.767Z,3.25
2023-10-24T04:43:21.378Z,3.63
2023-10-24T04:45:53.265Z,2.88
2023-10-24T04:48:20.711Z,2.60
2023-10-24T04:50:48.395Z,3.65
2023-10-24T04:53:15.877Z,2.45
2023-10-24T04:55:43.901Z,3.75
2023-10-24T04:58:11.819Z,3.15
2023-10-24T05:00:39.248Z,2.70
2023-10-24T05:03:07.997Z,3.03
2023-10-24T05:05:35.582Z,3.00
2023-10-24T05:08:08.443Z,3.25
2023-10-24T05:10:37.028Z,2.53
2023-10-24T05:13:04.623Z,3.13
2023-10-24T05:15:32.788Z,2.70
2023-10-24T05:18:00.522Z,3.20
2023-10-24T05:20:28.148Z,3.15
2023-10-24T05:22:55.581Z,2.63
2023-10-24T05:25:23.169Z,3.15
2023-10-24T05:27:50.726Z,2.95
2023-10-24T05:30:18.646Z,3.13
2023-10-24T05:32:46.093Z,3.88
2023-10-24T05:35:13.756Z,2.88
2023-10-24T05:37:41.717Z,3.65
2023-10-24T05:40:10.192Z,4.18
2023-10-24T05:42:38.066Z,3.40
2023-10-24T05:45:06.415Z,4.28
2023-10-24T05:47:34.126Z,4.10
2023-10-24T05:50:01.597Z,2.80
2023-10-24T05:52:32.060Z,4.00
2023-10-24T05:55:00.111Z,3.22
2023-10-24T05:57:29.470Z,2.97
2023-10-24T05:59:57.247Z,3.55
2023-10-24T06:02:24.726Z,2.88
2023-10-24T06:04:52.419Z,3.28
2023-10-24T06:07:19.840Z,3.55
2023-10-24T06:09:47.411Z,2.70
2023-10-24T06:12:15.022Z,3.35
2023-10-24T06:14:42.702Z,3.00
2023-10-24T06:17:10.395Z,3.75
2023-10-24T06:19:42.040Z,3.53
2023-10-24T06:22:09.989Z,3.20
2023-10-24T06:24:37.551Z,3.97
2023-10-24T06:27:05.380Z,3.55
2023-10-24T06:29:33.183Z,3.63
2023-10-24T06:32:00.746Z,3.47
2023-10-24T06:34:28.435Z,2.90
2023-10-24T06:36:55.973Z,3.78
2023-10-24T06:39:23.519Z,3.75
2023-10-24T06:41:51.609Z,3.33
2023-10-24T06:44:23.815Z,3.28
2023-10-24T06:46:51.599Z,3.72
2023-10-24T06:49:19.178Z,3.90
2023-10-24T06:51:46.779Z,4.22
2023-10-24T06:54:14.291Z,3.83
2023-10-24T06:56:41.525Z,4.18
2023-10-24T06:59:08.892Z,4.75
2023-10-24T07:01:36.361Z,4.82
2023-10-24T07:04:03.935Z,3.83
2023-10-24T07:06:31.498Z,3.53
2023-10-24T07:09:01.353Z,4.28
2023-10-24T07:11:28.979Z,3.50
2023-10-24T07:13:56.697Z,4.03
2023-10-24T07:16:24.287Z,4.15
2023-10-24T07:18:51.880Z,3.40
2023-10-24T07:21:19.416Z,5.32
2023-10-24T07:23:48.463Z,4.72
2023-10-24T07:26:15.982Z,3.95
2023-10-24T07:28:43.643Z,5.82
2023-10-24T07:31:11.261Z,5.32
2023-10-24T07:33:38.753Z,4.32
2023-10-24T07:36:07.335Z,4.13
2023-10-24T07:38:35.262Z,3.28
2023-10-24T07:41:02.906Z,4.80
2023-10-24T07:43:30.544Z,3.22
2023-10-24T07:45:58.020Z,4.95
2023-10-24T07:48:25.807Z,3.90
2023-10-24T07:50:54.990Z,3.67
2023-10-24T07:53:23.966Z,3.65
2023-10-24T07:55:51.932Z,4.20
2023-10-24T07:58:20.047Z,3.85
2023-10-24T08:00:48.571Z,3.72
2023-10-24T08:03:17.423Z,3.90
2023-10-24T08:05:45.327Z,3.80
2023-10-24T08:08:13.324Z,4.38
2023-10-24T08:10:40.957Z,3.92
2023-10-24T08:13:08.511Z,3.88
2023-10-24T08:15:36.438Z,3.97
2023-10-24T08:18:04.119Z,4.13
2023-10-24T08:20:31.583Z,3.97
2023-10-24T08:22:59.127Z,3.45
2023-10-24T08:25:26.688Z,4.45
2023-10-24T08:27:54.760Z,3.50
2023-10-24T08:30:22.556Z,4.60
2023-10-24T08:32:50.091Z,3.45
2023-10-24T08:35:17.677Z,4.43
2023-10-24T08:37:45.353Z,5.15
2023-10-24T08:40:13.441Z,3.88
2023-10-24T08:42:41.855Z,3.42
2023-10-24T08:45:10.891Z,4.18
2023-10-24T08:47:38.646Z,4.55
2023-10-24T08:50:07.816Z,4.00
2023-10-24T08:52:35.452Z,4.28
2023-10-24T08:55:07.373Z,3.45
2023-10-24T08:57:41.713Z,3.83
2023-10-24T09:00:12.238Z,3.70
2023-10-24T09:02:43.962Z,4.10
2023-10-24T09:05:16.023Z,3.05
2023-10-24T09:07:43.646Z,3.22
2023-10-24T09:10:11.253Z,3.10
2023-10-24T09:12:40.298Z,3.65
2023-10-24T09:15:10.693Z,4.20
2023-10-24T09:17:39.043Z,4.10
2023-10-24T09:20:08.188Z,4.35
2023-10-24T09:22:36.661Z,3.65
2023-10-24T09:25:06.010Z,4.05
2023-10-24T09:27:33.499Z,6.15
2023-10-24T09:30:12.307Z,6.25
2023-10-24T09:32:41.998Z,4.82
2023-10-24T09:35:10.359Z,4.15
2023-10-24T09:37:47.166Z,3.85
2023-10-24T09:40:15.147Z,2.97
2023-10-24T09:42:44.129Z,3.75
2023-10-24T09:45:13.050Z,3.58
2023-10-24T09:47:44.684Z,3.55
2023-10-24T09:50:15.053Z,3.85
2023-10-24T09:52:44.158Z,4.25
2023-10-24T09:55:14.588Z,3.13
2023-10-24T09:57:45.542Z,3.78
2023-10-24T10:00:16.237Z,4.32
2023-10-24T10:02:46.221Z,3.85
2023-10-24T10:05:16.330Z,4.22
2023-10-24T10:07:49.958Z,3.42
2023-10-24T10:10:17.896Z,4.15
2023-10-24T10:12:48.343Z,4.03
2023-10-24T10:15:39.579Z,3.08
2023-10-24T10:18:13.135Z,3.53
2023-10-24T10:21:18.006Z,3.60
2023-10-24T10:23:57.720Z,3.30
2023-10-24T10:26:54.331Z,3.70
2023-10-24T10:29:38.793Z,3.45
2023-10-24T10:33:01.658Z,3.72
2023-10-24T10:35:54.568Z,3.50
2023-10-24T10:38:35.210Z,4.20
2023-10-24T10:41:28.057Z,4.20
2023-10-24T10:43:59.431Z,4.15
2023-10-24T10:46:29.028Z,3.53
2023-10-24T10:49:01.081Z,3.45
2023-10-24T10:51:37.669Z,7.63
2023-10-24T10:54:57.070Z,10.15
2023-10-24T10:57:33.314Z,5.90
2023-10-24T11:00:05.653Z,4.75
2023-10-24T11:02:44.880Z,4.25
2023-10-24T11:05:36.441Z,4.20
2023-10-24T11:08:05.966Z,4.20
2023-10-24T11:10:55.680Z,4.07
2023-10-24T11:13:39.775Z,4.05
2023-10-24T11:18:46.588Z,5.03
2023-10-24T11:21:15.194Z,4.63
2023-10-24T11:23:45.659Z,3.30
2023-10-24T11:26:14.784Z,4.07
2023-10-24T11:28:44.546Z,5.50
2023-10-24T11:31:23.203Z,5.03
2023-10-24T11:33:51.210Z,8.30
2023-10-24T11:36:19.067Z,11.45
2023-10-24T11:38:46.805Z,8.32
2023-10-24T11:41:14.562Z,12.13
2023-10-24T11:43:42.092Z,6.18
2023-10-24T11:46:09.630Z,7.10
2023-10-24T11:48:37.314Z,5.97
2023-10-24T11:51:04.957Z,6.15
2023-10-24T11:53:32.869Z,5.57
2023-10-24T11:56:01.011Z,4.43
2023-10-24T11:58:33.991Z,4.55
2023-10-24T12:01:03.249Z,4.38
2023-10-24T12:03:48.801Z,3.75
2023-10-24T12:06:19.211Z,6.15
2023-10-24T12:08:49.125Z,5.20
2023-10-24T12:11:17.929Z,7.18
2023-10-24T12:13:47.459Z,4.45
2023-10-24T12:16:15.900Z,4.32
2023-10-24T12:18:43.438Z,4.18
2023-10-24T12:21:12.314Z,5.55
2023-10-24T12:23:39.678Z,4.80
2023-10-24T12:26:07.455Z,9.13
2023-10-24T12:28:35.637Z,5.60
2023-10-24T12:31:05.058Z,6.72
2023-10-24T12:33:32.803Z,4.43
2023-10-24T12:36:02.176Z,5.00
2023-10-24T12:38:30.527Z,4.47
2023-10-24T12:40:58.175Z,5.50
2023-10-24T12:43:25.873Z,4.50
2023-10-24T12:45:53.431Z,4.55
2023-10-24T12:48:21.047Z,4.32
2023-10-24T12:50:48.763Z,4.30
2023-10-24T12:53:16.420Z,4.65
2023-10-24T12:55:43.946Z,8.02
2023-10-24T12:58:11.821Z,25.45
2023-10-24T13:00:39.431Z,6.18
2023-10-24T13:03:15.204Z,4.60
2023-10-24T13:05:46.570Z,5.35
2023-10-24T13:08:14.520Z,4.88
2023-10-24T13:10:42.307Z,6.40
2023-10-24T13:13:10.426Z,4.30
2023-10-24T13:15:38.122Z,3.92
2023-10-24T13:18:05.859Z,4.85
2023-10-24T13:20:33.365Z,3.92
2023-10-24T13:23:00.916Z,9.10
2023-10-24T13:25:30.723Z,5.10
2023-10-24T13:27:58.342Z,5.28
2023-10-24T13:30:40.912Z,17.25
2023-10-24T13:33:10.786Z,14.30
2023-10-24T13:38:08.834Z,8.20
2023-10-24T13:40:36.253Z,6.15
2023-10-24T13:43:03.857Z,5.38
2023-10-24T13:45:31.444Z,5.32
2023-10-24T13:47:59.025Z,5.18
2023-10-24T13:50:26.548Z,5.53
2023-10-24T13:52:54.365Z,4.75
2023-10-24T13:55:21.845Z,5.25
2023-10-24T13:57:49.643Z,4.32
2023-10-24T14:00:19.352Z,4.90
2023-10-24T14:02:47.026Z,4.43
2023-10-24T14:05:14.990Z,4.50
2023-10-24T14:07:43.745Z,14.10
2023-10-24T14:10:11.290Z,6.05
2023-10-24T14:12:38.899Z,23.92
2023-10-24T14:15:07.866Z,6.68
2023-10-24T14:17:35.488Z,4.45
2023-10-24T14:20:04.103Z,5.63
2023-10-24T14:22:31.717Z,6.47
2023-10-24T14:24:59.259Z,5.97
2023-10-24T14:27:26.746Z,5.43
2023-10-24T14:29:55.187Z,5.28
2023-10-24T14:32:22.704Z,5.57
2023-10-24T14:34:50.289Z,5.10
2023-10-24T14:37:18.116Z,5.45
2023-10-24T14:39:45.630Z,5.70
2023-10-24T14:42:13.107Z,6.20
2023-10-24T14:44:41.020Z,18.15
2023-10-24T14:47:09.007Z,23.42
2023-10-24T14:49:36.620Z,9.73
2023-10-24T14:52:04.404Z,7.72
2023-10-24T14:54:31.933Z,6.05
2023-10-24T14:56:59.757Z,4.38
2023-10-24T14:59:27.393Z,4.68
2023-10-24T15:01:56.857Z,4.78
2023-10-24T15:04:24.201Z,5.00
2023-10-24T15:06:51.558Z,5.70
2023-10-24T15:09:20.724Z,5.60
2023-10-24T15:11:51.327Z,6.45
2023-10-24T15:14:18.869Z,5.43
2023-10-24T15:16:46.719Z,5.25
2023-10-24T15:19:14.328Z,5.15
2023-10-24T15:21:41.642Z,5.55
2023-10-24T15:24:09.334Z,4.30
2023-10-24T15:26:36.823Z,5.25
2023-10-24T15:29:05.321Z,5.28
2023-10-24T15:31:35.926Z,5.38
2023-10-24T15:34:03.399Z,5.18
2023-10-24T15:36:33.176Z,6.07
2023-10-24T15:39:01.689Z,5.18
2023-10-24T15:41:29.275Z,5.57
2023-10-24T15:43:56.625Z,5.95
2023-10-24T15:46:23.976Z,5.80
2023-10-24T15:48:54.495Z,7.55
2023-10-24T15:51:22.752Z,6.00
2023-10-24T15:53:50.151Z,6.90
2023-10-24T15:56:17.837Z,5.75
2023-10-24T15:58:45.395Z,5.80
2023-10-24T16:01:17.933Z,6.47
2023-10-24T16:03:46.860Z,6.15
2023-10-24T16:06:17.170Z,7.00
2023-10-24T16:08:44.677Z,6.97
2023-10-24T16:11:12.362Z,8.32
2023-10-24T16:13:39.853Z,7.55
2023-10-24T16:16:07.701Z,6.70
2023-10-24T16:18:35.444Z,6.80
2023-10-24T16:21:03.906Z,7.00
2023-10-24T16:23:32.851Z,6.60
2023-10-24T16:26:02.898Z,6.80
2023-10-24T16:28:31.062Z,7.82
2023-10-24T16:30:58.574Z,6.93
2023-10-24T16:33:29.361Z,7.00
2023-10-24T16:35:58.144Z,6.95
2023-10-24T16:38:25.928Z,6.45
2023-10-24T16:40:53.630Z,6.72
2023-10-24T16:43:21.218Z,6.88
2023-10-24T16:45:49.324Z,5.95
2023-10-24T16:48:18.647Z,6.63
2023-10-24T16:50:50.911Z,6.22
2023-10-24T16:53:18.713Z,5.70
2023-10-24T16:55:49.134Z,5.40
2023-10-24T16:58:17.016Z,5.72
2023-10-24T17:00:47.946Z,5.65
2023-10-24T17:03:16.698Z,5.68
2023-10-24T17:05:45.151Z,5.80
2023-10-24T17:08:12.913Z,5.22
2023-10-24T17:10:41.907Z,5.97
2023-10-24T17:13:09.614Z,6.25
2023-10-24T17:15:37.353Z,6.25
2023-10-24T17:18:05.267Z,5.90
2023-10-24T17:20:34.905Z,5.88
2023-10-24T17:23:03.078Z,6.65
2023-10-24T17:25:30.888Z,6.95
2023-10-24T17:27:59.563Z,5.90
2023-10-24T17:30:27.289Z,5.32
2023-10-24T17:32:55.641Z,5.88
2023-10-24T17:35:26.583Z,5.20
2023-10-24T17:37:55.041Z,5.82
2023-10-24T17:40:23.344Z,4.93
2023-10-24T17:42:53.043Z,5.93
2023-10-24T17:45:20.642Z,5.63
2023-10-24T17:47:48.696Z,4.57
2023-10-24T17:50:16.702Z,5.13
2023-10-24T17:52:44.817Z,4.57
2023-10-24T17:55:12.677Z,5.68
2023-10-24T17:57:40.816Z,4.75
2023-10-24T18:00:08.921Z,4.43
2023-10-24T18:02:36.459Z,4.22
2023-10-24T18:05:06.853Z,5.13
2023-10-24T18:07:34.562Z,4.63
2023-10-24T18:10:02.112Z,5.18
2023-10-24T18:12:31.098Z,5.97
2023-10-24T18:14:58.398Z,6.72
2023-10-24T18:17:26.075Z,6.07
2023-10-24T18:19:53.560Z,5.85
2023-10-24T18:22:21.387Z,5.50
2023-10-24T18:24:48.662Z,5.63
2023-10-24T18:27:16.145Z,5.35
2023-10-24T18:29:46.442Z,5.75
2023-10-24T18:32:13.953Z,5.00
2023-10-24T18:34:46.270Z,5.47
2023-10-24T18:37:16.104Z,5.63
2023-10-24T18:39:44.020Z,5.20
2023-10-24T18:42:12.782Z,5.10
2023-10-24T18:44:40.309Z,5.32
2023-10-24T18:47:08.689Z,4.93
2023-10-24T18:49:36.498Z,5.13
2023-10-24T18:52:04.033Z,4.22
2023-10-24T18:54:31.754Z,4.40
2023-10-24T18:56:59.611Z,5.38
2023-10-24T18:59:27.276Z,4.10
2023-10-24T19:01:54.837Z,4.50
2023-10-24T19:04:22.889Z,5.22
2023-10-24T19:06:50.343Z,4.05
2023-10-24T19:09:17.641Z,4.75
2023-10-24T19:11:45.196Z,5.05
2023-10-24T19:14:12.793Z,5.20
2023-10-24T19:16:40.324Z,4.55
2023-10-24T19:19:09.062Z,5.50
2023-10-24T19:21:36.909Z,5.65
2023-10-24T19:24:04.674Z,4.53
2023-10-24T19:26:32.818Z,4.72
2023-10-24T19:29:00.705Z,4.45
2023-10-24T19:31:29.747Z,5.50
2023-10-24T19:33:57.278Z,4.47
2023-10-24T19:36:25.961Z,4.82
2023-10-24T19:38:53.613Z,5.25
2023-10-24T19:41:21.853Z,4.82
2023-10-24T19:43:49.616Z,5.15
2023-10-24T19:46:22.033Z,5.80
2023-10-24T19:48:50.232Z,5.03
2023-10-24T19:51:17.924Z,5.22
2023-10-24T19:53:45.820Z,5.00
2023-10-24T19:56:15.218Z,5.45
2023-10-24T19:58:47.269Z,4.40
2023-10-24T20:01:15.317Z,5.05
2023-10-24T20:03:43.560Z,4.95
2023-10-24T20:06:12.435Z,4.80
2023-10-24T20:08:44.440Z,4.93
2023-10-24T20:12:32.191Z,5.53
2023-10-24T20:14:02.491Z,4.88
2023-10-24T20:16:33.665Z,5.22
2023-10-24T20:19:01.368Z,5.35
2023-10-24T20:21:29.228Z,4.88
2023-10-24T20:23:56.863Z,5.57
2023-10-24T20:26:27.447Z,5.78
2023-10-24T20:28:54.907Z,5.32
2023-10-24T20:31:22.425Z,6.30
2023-10-24T20:33:50.039Z,5.40
2023-10-24T20:36:17.562Z,5.32
2023-10-24T20:38:44.999Z,5.70
2023-10-24T20:41:13.842Z,5.53
2023-10-24T20:43:41.284Z,5.97
2023-10-24T20:46:09.042Z,5.90
2023-10-24T20:48:36.903Z,5.00
2023-10-24T20:51:04.610Z,5.95
2023-10-24T20:53:32.632Z,6.93
2023-10-24T20:56:00.141Z,4.90
2023-10-24T20:58:27.633Z,5.40
2023-10-24T21:00:55.383Z,6.45
2023-10-24T21:03:22.889Z,5.88
2023-10-24T21:05:50.437Z,6.03
2023-10-24T21:08:17.883Z,6.13
2023-10-24T21:10:45.809Z,6.47
2023-10-24T21:13:13.498Z,6.10
2023-10-24T21:15:43.484Z,5.55
2023-10-24T21:18:11.028Z,6.20
2023-10-24T21:20:38.634Z,7.10
2023-10-24T21:23:06.096Z,6.28
2023-10-24T21:25:34.952Z,6.47
2023-10-24T21:28:02.708Z,7.45
2023-10-24T21:30:30.545Z,7.25
2023-10-24T21:32:58.382Z,6.95
2023-10-24T21:35:25.864Z,6.30
2023-10-24T21:37:53.318Z,6.72
2023-10-24T21:40:21.897Z,6.18
2023-10-24T21:42:49.458Z,6.43
2023-10-24T21:45:18.143Z,7.22
2023-10-24T21:47:49.296Z,5.63
2023-10-24T21:50:16.870Z,6.88
2023-10-24T21:52:44.420Z,7.20
2023-10-24T21:55:11.997Z,6.55
2023-10-24T21:57:39.510Z,7.75
2023-10-24T22:00:09.256Z,7.18
2023-10-24T22:02:40.213Z,7.53
2023-10-24T22:05:09.271Z,7.13
2023-10-24T22:07:37.250Z,7.22
2023-10-24T22:10:09.561Z,7.63
2023-10-24T22:12:40.292Z,6.85
2023-10-24T22:15:09.320Z,8.63
2023-10-24T22:17:37.264Z,7.88
2023-10-24T22:20:05.486Z,6.22
2023-10-24T22:22:33.062Z,7.18
2023-10-24T22:25:00.527Z,6.88
2023-10-24T22:27:28.230Z,7.22
2023-10-24T22:29:55.641Z,6.97
2023-10-24T22:32:23.417Z,6.93
2023-10-24T22:34:50.749Z,7.55
2023-10-24T22:37:18.389Z,6.85
2023-10-24T22:39:45.910Z,6.53
2023-10-24T22:42:13.268Z,6.68
2023-10-24T22:44:40.838Z,5.53
2023-10-24T22:47:08.102Z,5.38
2023-10-24T22:49:35.505Z,5.30
2023-10-24T22:52:02.993Z,5.20
2023-10-24T22:54:30.431Z,5.05
2023-10-24T22:56:57.752Z,5.28
2023-10-24T22:59:25.370Z,4.55
2023-10-24T23:01:52.746Z,5.18
2023-10-24T23:04:20.281Z,4.97
2023-10-24T23:06:49.492Z,4.72
2023-10-24T23:09:16.924Z,4.90
2023-10-24T23:11:44.385Z,4.03
2023-10-24T23:14:11.860Z,4.72
2023-10-24T23:16:39.438Z,4.38
2023-10-24T23:19:07.907Z,3.97
2023-10-24T23:21:35.587Z,3.78
2023-10-24T23:24:03.156Z,4.55
2023-10-24T23:26:30.548Z,4.78
2023-10-24T23:28:57.985Z,4.30
2023-10-24T23:31:25.478Z,4.63
2023-10-24T23:33:52.847Z,3.90
2023-10-24T23:36:20.226Z,4.43
2023-10-24T23:38:47.665Z,3.80
2023-10-24T23:41:15.566Z,4.00
2023-10-24T23:43:43.196Z,3.65
2023-10-24T23:46:10.926Z,4.10
2023-10-24T23:48:38.563Z,5.28
2023-10-24T23:51:06.275Z,4.28
2023-10-24T23:53:33.537Z,3.78
2023-10-24T23:56:00.952Z,4.05
2023-10-24T23:58:28.385Z,3.65
